Terminal Aerodrome Forecast
Issued by NWS

Home | Current Version | Previous Version | Text Only | Print | Product List | Glossary On
Versions: 1 2 3 4 5 6 7 8 9 10 11 12 13 14
831
FTUS44 KJAN 270538
TAFHKS
TAF
KHKS 270538Z 2706/2806 VRB03KT P6SM FEW050 FEW250
     FM271100 00000KT 6SM BR FEW250
     FM271330 09007KT P6SM FEW030 SCT050
     FM280000 09005KT P6SM FEW250=

USA.gov is the U.S. government's official web portal to all federal, state and local government web resources and services.